Time;durP1;ratioP1;P1;durP2;ratioP2;P2;SDS_P1;SDS_P2;PMS_P1;PMS_P2;Temp;Humidity;BMP_temperature;BMP_pressure;BME280_temperature;BME280_humidity;BME280_pressure;Samples;Min_cycle;Max_cycle;Signal;HPM_P1;HPM_P2
2022/04/26 03:38:14;;;;;;;88.87;57.25;;;;;;;7.25;100.00;97753.22;1746872;80;21816;-57
2022/04/26 03:40:40;;;;;;;69.87;45.03;;;;;;;7.27;100.00;97761.34;1746782;82;21040;-57
2022/04/26 03:43:06;;;;;;;65.70;37.98;;;;;;;7.31;100.00;97757.56;1747278;80;20881;-57
2022/04/26 03:45:32;;;;;;;67.92;44.30;;;;;;;7.34;100.00;97759.72;1747062;82;20952;-57
2022/04/26 03:47:58;;;;;;;68.10;43.52;;;;;;;7.39;99.90;97760.28;1747446;82;20897;-57
2022/04/26 03:50:23;;;;;;;56.10;33.20;;;;;;;7.40;100.00;97762.71;1747023;80;21778;-58
2022/04/26 03:52:52;;;;;;;53.10;28.45;;;;;;;7.41;99.96;97768.91;1731012;82;21472;-57
2022/04/26 03:55:17;;;;;;;43.90;26.30;;;;;;;7.43;99.68;97772.14;1742341;81;20985;-57
2022/04/26 03:57:43;;;;;;;44.83;24.87;;;;;;;7.45;99.55;97774.87;1735030;82;20876;-57
2022/04/26 04:00:11;;;;;;;47.05;27.70;;;;;;;7.48;99.43;97774.33;1735163;80;20864;-58
2022/04/26 04:02:37;;;;;;;47.62;27.60;;;;;;;7.49;99.29;97781.34;1747590;80;22508;-57
2022/04/26 04:05:04;;;;;;;47.65;27.80;;;;;;;7.50;99.16;97783.49;1746982;82;20873;-57
2022/04/26 04:07:30;;;;;;;41.18;26.17;;;;;;;7.48;99.13;97787.81;1747234;82;21473;-57
2022/04/26 04:09:56;;;;;;;44.73;26.02;;;;;;;7.49;99.05;97789.42;1747124;82;20873;-57
2022/04/26 04:12:22;;;;;;;45.65;24.63;;;;;;;7.50;99.02;97795.09;1747457;82;21556;-57
2022/04/26 04:14:48;;;;;;;37.48;23.83;;;;;;;7.50;99.21;97787.54;1747183;82;20995;-57
2022/04/26 04:17:14;;;;;;;34.40;20.27;;;;;;;7.51;98.93;97797.25;1747526;80;21603;-57
2022/04/26 04:19:39;;;;;;;28.80;19.52;;;;;;;7.51;98.76;97806.14;1734172;80;20916;-57
2022/04/26 04:22:05;;;;;;;29.75;20.17;;;;;;;7.45;99.32;97801.83;1744888;82;20916;-57
2022/04/26 04:24:32;;;;;;;32.05;20.05;;;;;;;7.43;99.18;97808.00;1747174;82;20866;-57
2022/04/26 04:26:58;;;;;;;29.23;18.25;;;;;;;7.44;99.59;97812.88;1747059;82;21447;-58
2022/04/26 04:29:24;;;;;;;31.57;20.32;;;;;;;7.43;99.18;97814.73;1747100;80;20964;-57
2022/04/26 04:31:50;;;;;;;82.45;39.50;;;;;;;7.44;99.20;97823.67;1747361;82;20968;-57
2022/04/26 04:34:16;;;;;;;158.30;74.90;;;;;;;7.43;99.13;97821.48;1747114;81;20850;-57
2022/04/26 04:36:42;;;;;;;231.93;106.05;;;;;;;7.45;98.97;97818.01;1747350;82;20849;-57
2022/04/26 04:39:08;;;;;;;177.55;80.57;;;;;;;7.48;99.10;97824.20;1747127;82;21036;-57
2022/04/26 04:41:36;;;;;;;240.30;107.72;;;;;;;7.46;99.47;97825.55;1746875;82;20881;-57
2022/04/26 04:44:06;;;;;;;232.20;107.70;;;;;;;7.46;99.36;97830.95;1747387;80;20992;-57
2022/04/26 04:46:31;;;;;;;226.42;110.95;;;;;;;7.45;99.34;97827.98;1746739;80;21571;-57
2022/04/26 04:48:57;;;;;;;248.85;136.52;;;;;;;7.45;99.39;97834.72;1746986;80;20897;-57
2022/04/26 04:51:23;;;;;;;208.55;111.83;;;;;;;7.44;99.29;97837.95;1747083;82;22089;-57
2022/04/26 04:53:49;;;;;;;137.95;77.95;;;;;;;7.43;99.05;97839.00;1733535;80;20833;-57
2022/04/26 04:56:15;;;;;;;71.72;42.00;;;;;;;7.44;98.99;97842.54;1747102;82;21626;-57
2022/04/26 04:58:41;;;;;;;36.75;23.25;;;;;;;7.43;99.73;97844.39;1746755;81;20869;-57
2022/04/26 05:01:07;;;;;;;30.85;20.25;;;;;;;7.39;100.00;97846.02;1745586;82;20996;-57
2022/04/26 05:03:32;;;;;;;33.75;20.65;;;;;;;7.34;100.00;97850.83;1737798;80;20972;-57
2022/04/26 05:05:58;;;;;;;35.88;24.18;;;;;;;7.32;100.00;97857.02;1730328;82;20920;-57
2022/04/26 05:08:27;;;;;;;29.72;18.40;;;;;;;7.30;100.00;97857.02;1732133;82;20850;-57
2022/04/26 05:10:53;;;;;;;31.35;20.25;;;;;;;7.29;100.00;97860.25;1733162;82;20977;-57
2022/04/26 05:13:20;;;;;;;28.50;19.17;;;;;;;7.30;100.00;97859.18;1731133;82;20862;-57
2022/04/26 05:15:46;;;;;;;29.40;17.90;;;;;;;7.34;100.00;97866.19;1735125;82;21096;-57
2022/04/26 05:18:12;;;;;;;28.50;19.35;;;;;;;7.32;100.00;97865.65;1723482;80;20996;-57
2022/04/26 05:20:39;;;;;;;32.63;19.60;;;;;;;7.35;99.96;97876.73;1734380;82;20955;-57
2022/04/26 05:25:49;;;;;;;39.20;23.15;;;;;;;7.40;99.84;97878.62;1733847;82;21019;-58
2022/04/26 05:28:15;;;;;;;45.40;22.30;;;;;;;7.42;100.00;97883.22;1733300;81;22231;-57
2022/04/26 05:30:41;;;;;;;41.50;23.60;;;;;;;7.41;99.89;97884.83;1736620;82;20885;-58
2022/04/26 05:33:06;;;;;;;39.85;24.98;;;;;;;7.44;99.98;97886.48;1743252;80;20930;-57
2022/04/26 05:35:32;;;;;;;41.63;25.35;;;;;;;7.47;100.00;97889.18;1744183;80;20854;-57
2022/04/26 05:37:58;;;;;;;48.83;27.52;;;;;;;7.52;99.70;97883.28;1741126;82;21423;-58
2022/04/26 05:40:24;;;;;;;52.55;30.48;;;;;;;7.60;99.48;97886.80;1734567;82;21611;-57
2022/04/26 05:42:50;;;;;;;57.05;33.58;;;;;;;7.66;99.57;97886.83;1737162;80;20842;-58
2022/04/26 05:45:16;;;;;;;49.23;31.45;;;;;;;7.74;99.58;97893.06;1747032;82;21016;-57
2022/04/26 05:47:43;;;;;;;62.93;34.05;;;;;;;7.81;99.13;97893.64;1739869;82;20957;-57
2022/04/26 05:50:10;;;;;;;57.45;34.18;;;;;;;7.88;98.99;97888.81;1726289;80;21015;-58
2022/04/26 05:52:36;;;;;;;52.62;30.60;;;;;;;7.91;98.83;97891.77;1727774;82;21691;-57
2022/04/26 05:55:04;;;;;;;48.68;28.90;;;;;;;7.91;98.72;97893.12;1746955;82;20961;-57
2022/04/26 05:57:31;;;;;;;45.63;25.92;;;;;;;7.92;98.22;97896.63;1747215;82;21028;-58
2022/04/26 05:59:57;;;;;;;48.00;28.23;;;;;;;8.02;98.21;97899.89;1746976;82;21417;-57
2022/04/26 06:02:23;;;;;;;44.80;27.02;;;;;;;8.09;98.12;97905.86;1744879;80;21008;-57
2022/04/26 06:04:49;;;;;;;46.20;25.32;;;;;;;8.04;97.81;97911.26;1739739;80;22104;-57
2022/04/26 06:07:14;;;;;;;45.80;24.70;;;;;;;8.10;97.73;97907.47;1746606;81;20945;-57
2022/04/26 06:09:40;;;;;;;47.30;28.92;;;;;;;8.09;97.81;97905.31;1731866;80;21575;-57
2022/04/26 06:12:08;;;;;;;50.10;28.67;;;;;;;8.14;97.70;97908.04;1737302;82;21503;-57
2022/04/26 06:14:34;;;;;;;49.65;29.50;;;;;;;8.24;97.47;97913.19;1737362;82;21458;-57
2022/04/26 06:17:00;;;;;;;51.63;28.75;;;;;;;8.35;97.53;97899.45;1721376;81;21397;-58
2022/04/26 06:19:26;;;;;;;53.20;29.18;;;;;;;8.44;97.31;97899.73;1719290;80;20941;-57
2022/04/26 06:21:52;;;;;;;57.23;30.17;;;;;;;8.45;96.66;97906.22;1735394;82;20943;-57
2022/04/26 06:24:18;;;;;;;50.98;30.48;;;;;;;8.43;96.24;97911.63;1740590;80;21546;-57
2022/04/26 06:26:44;;;;;;;44.33;27.67;;;;;;;8.53;96.30;97914.87;1736986;80;21032;-57
2022/04/26 06:29:09;;;;;;;46.73;27.22;;;;;;;8.58;96.51;97914.34;1737639;82;21626;-57
2022/04/26 06:31:35;;;;;;;51.88;30.37;;;;;;;8.55;95.76;97916.78;1743057;81;20921;-57
2022/04/26 06:34:01;;;;;;;48.42;27.95;;;;;;;8.62;95.88;97919.46;1744591;81;21633;-58
2022/04/26 06:36:27;;;;;;;46.88;27.13;;;;;;;8.69;95.42;97918.66;1739087;82;20877;-57
2022/04/26 06:38:53;;;;;;;49.93;28.90;;;;;;;8.66;93.94;97915.70;1717647;82;22363;-58
2022/04/26 06:41:20;;;;;;;45.45;27.52;;;;;;;8.72;93.57;97916.79;1725111;82;21000;-58
2022/04/26 06:43:46;;;;;;;40.12;24.72;;;;;;;8.92;94.19;97917.31;1737605;82;21004;-57
2022/04/26 06:46:12;;;;;;;43.65;26.57;;;;;;;8.97;92.42;97920.55;1732284;81;20960;-57
2022/04/26 06:48:38;;;;;;;61.18;27.10;;;;;;;9.02;91.67;97920.01;1743954;80;20872;-57
2022/04/26 06:51:04;;;;;;;44.77;27.07;;;;;;;9.17;91.08;97920.54;1742396;80;21540;-58
2022/04/26 06:53:30;;;;;;;41.45;25.48;;;;;;;9.41;92.14;97919.42;1741374;81;21146;-58
2022/04/26 06:55:56;;;;;;;44.80;26.95;;;;;;;9.45;91.01;97917.77;1742228;81;21035;-58
2022/04/26 06:58:22;;;;;;;38.70;24.60;;;;;;;9.45;89.91;97923.18;1741247;81;20978;-57
2022/04/26 07:00:48;;;;;;;39.70;24.45;;;;;;;9.44;89.29;97920.75;1749600;80;20908;-57
2022/04/26 07:03:14;;;;;;;43.35;27.27;;;;;;;9.56;89.75;97924.77;1755458;80;21026;-58
2022/04/26 07:05:41;;;;;;;40.30;25.00;;;;;;;9.75;90.36;97924.19;1740973;80;21314;-58
2022/04/26 07:08:07;;;;;;;38.17;24.47;;;;;;;9.73;88.64;97926.33;1757289;80;21076;-58
2022/04/26 07:10:34;;;;;;;35.80;25.17;;;;;;;9.70;87.38;97930.41;1750699;80;21457;-57
2022/04/26 07:13:00;;;;;;;39.67;25.55;;;;;;;9.97;88.48;97925.97;1755604;80;21047;-58
2022/04/26 07:15:26;;;;;;;39.70;25.82;;;;;;;10.17;88.39;97927.23;1752247;80;21446;-58
2022/04/26 07:17:52;;;;;;;40.17;26.40;;;;;;;10.22;86.60;97934.55;1758554;80;21126;-58
2022/04/26 07:20:17;;;;;;;41.15;26.27;;;;;;;10.48;87.81;97933.04;1754333;80;20914;-58
2022/04/26 07:22:43;;;;;;;42.48;26.73;;;;;;;10.68;87.97;97934.24;1750092;80;20942;-58
2022/04/26 07:25:12;;;;;;;28.80;19.73;;;;;;;10.73;85.11;97929.60;1759997;80;20928;-58
2022/04/26 07:27:40;;;;;;;28.95;19.30;;;;;;;10.81;84.16;97932.81;1755540;80;21005;-58
2022/04/26 07:30:06;;;;;;;38.63;20.45;;;;;;;11.00;85.51;97935.08;1732407;80;21266;-58
2022/04/26 07:35:17;;;;;;;31.27;20.90;;;;;;;11.40;80.58;97941.23;1753302;80;21019;-58
2022/04/26 07:37:43;;;;;;;29.15;19.12;;;;;;;11.53;82.47;97939.99;1753520;80;20858;-58
2022/04/26 07:40:10;;;;;;;28.27;19.75;;;;;;;11.41;79.02;97943.66;1755499;80;20915;-58
2022/04/26 07:42:36;;;;;;;29.48;20.70;;;;;;;11.50;81.04;97947.36;1756783;80;21179;-58
2022/04/26 07:45:02;;;;;;;32.28;21.23;;;;;;;11.70;76.85;97946.33;1752809;80;21599;-58
2022/04/26 07:47:29;;;;;;;27.35;19.37;;;;;;;11.90;79.47;97943.98;1743336;81;21031;-58
2022/04/26 07:49:55;;;;;;;30.27;20.70;;;;;;;11.73;76.01;97952.55;1737144;81;21135;-58
2022/04/26 07:52:23;;;;;;;30.90;19.98;;;;;;;11.91;77.21;97948.30;1748563;81;22643;-58
2022/04/26 07:54:51;;;;;;;37.53;22.40;;;;;;;11.84;74.07;97948.65;1737006;81;21130;-58
2022/04/26 07:57:16;;;;;;;33.33;20.57;;;;;;;12.14;76.27;97948.84;1740795;81;21451;-58
2022/04/26 07:59:43;;;;;;;29.48;21.42;;;;;;;12.18;75.62;97953.68;1738081;81;33524;-58
2022/04/26 08:02:12;;;;;;;27.50;20.35;;;;;;;11.96;74.07;97954.20;1745380;81;20893;-57
2022/04/26 08:04:38;;;;;;;29.98;19.87;;;;;;;12.08;73.33;97960.86;1743098;80;21030;-57
2022/04/26 08:07:04;;;;;;;29.15;19.45;;;;;;;12.08;73.61;97959.50;1743183;81;21164;-58
2022/04/26 08:09:35;;;;;;;25.50;18.98;;;;;;;12.24;74.29;97962.03;1737777;80;21043;-58
2022/04/26 08:11:59;;;;;;;29.05;20.23;;;;;;;12.41;76.08;97960.98;1739940;81;21457;-58
2022/04/26 08:14:25;;;;;;;28.90;20.32;;;;;;;12.61;76.76;97961.23;1733110;81;20905;-57
2022/04/26 08:16:50;;;;;;;26.50;18.45;;;;;;;12.57;74.23;97963.75;1737456;81;21703;-58
2022/04/26 08:19:16;;;;;;;30.17;22.50;;;;;;;12.47;71.29;97969.30;1739150;80;21308;-57
2022/04/26 08:21:42;;;;;;;31.35;21.73;;;;;;;12.40;71.96;97971.05;1742717;81;21565;-58
2022/04/26 08:29:37;;;;;;;25.45;17.48;;;;;;;12.41;70.47;97978.09;1742366;81;21071;-57
2022/04/26 08:32:03;;;;;;;22.45;16.32;;;;;;;12.55;71.26;97982.23;1739955;81;21783;-58
2022/04/26 08:34:29;;;;;;;27.40;17.42;;;;;;;12.58;71.82;97983.03;1733373;81;21416;-58
2022/04/26 08:36:55;;;;;;;28.45;18.02;;;;;;;12.41;69.51;97986.25;1731127;82;20940;-57
2022/04/26 08:39:23;;;;;;;24.98;18.60;;;;;;;12.23;69.08;97985.67;1714871;82;20920;-57
2022/04/26 08:41:49;;;;;;;24.60;17.52;;;;;;;12.54;72.26;97981.17;1722615;82;21179;-58
2022/04/26 08:44:15;;;;;;;26.62;17.40;;;;;;;12.53;70.34;97979.56;1732864;81;21353;-57
2022/04/26 08:52:09;;;;;;;31.75;19.23;;;;;;;12.90;72.57;97986.38;1738922;82;20957;-58
2022/04/26 08:54:35;;;;;;;26.07;17.02;;;;;;;12.89;71.15;97992.08;1732469;81;20902;-58
2022/04/26 08:57:02;;;;;;;29.77;20.15;;;;;;;12.63;70.08;97994.36;1737726;81;21298;-58
2022/04/26 08:59:28;;;;;;;26.30;17.77;;;;;;;12.31;70.20;98001.33;1743860;82;21576;-58
2022/04/26 09:02:14;;;;;;;23.02;17.50;;;;;;;12.28;72.02;97998.37;1730429;81;20864;-58
2022/04/26 09:04:40;;;;;;;26.23;17.60;;;;;;;12.02;71.08;97997.87;1729806;81;21091;-58
2022/04/26 09:07:29;;;;;;;27.25;17.55;;;;;;;11.95;71.74;97995.49;1730894;82;20893;-57
2022/04/26 09:10:13;;;;;;;26.15;17.80;;;;;;;11.43;71.08;97995.72;1736696;82;21134;-58
2022/04/26 09:13:09;;;;;;;26.70;17.42;;;;;;;11.23;72.50;97992.66;1737929;82;21099;-58
2022/04/26 09:15:54;;;;;;;29.35;19.07;;;;;;;11.33;73.13;98001.25;1735687;81;21028;-58
2022/04/26 09:18:26;;;;;;;28.67;18.02;;;;;;;11.11;72.78;97988.67;1716870;82;21049;-58
2022/04/26 09:21:06;;;;;;;25.55;17.90;;;;;;;11.20;73.65;97995.14;1728654;81;21269;-58
2022/04/26 09:23:35;;;;;;;31.60;18.70;;;;;;;11.27;73.86;97998.30;1728277;81;21035;-58
2022/04/26 09:26:08;;;;;;;;;;;;;;;11.09;74.83;97995.74;1738031;82;21485;-58
2022/04/26 09:28:40;;;;;;;24.00;16.07;;;;;;;10.94;74.21;97997.23;1733040;80;20443;-58
2022/04/26 09:31:21;;;;;;;24.90;17.65;;;;;;;11.03;74.97;97999.61;1733302;81;21464;-58
2022/04/26 09:33:52;;;;;;;28.10;17.55;;;;;;;11.16;75.03;97995.42;1739036;80;21078;-58
2022/04/26 09:36:21;;;;;;;30.70;18.30;;;;;;;11.11;75.23;98001.72;1732112;82;21119;-58
2022/04/26 09:38:57;;;;;;;26.73;18.92;;;;;;;10.96;74.71;98000.47;1742027;80;23157;-57
2022/04/26 09:41:25;;;;;;;29.50;17.90;;;;;;;10.75;74.84;98001.14;1736261;82;21138;-58
2022/04/26 09:44:06;;;;;;;27.32;16.97;;;;;;;10.69;75.49;98001.73;1736483;81;21026;-58
2022/04/26 09:46:53;;;;;;;24.55;17.10;;;;;;;10.60;75.48;98000.70;1734891;81;21077;-58
2022/04/26 09:49:23;;;;;;;23.30;15.90;;;;;;;10.68;75.80;97997.41;1739587;82;21415;-58
2022/04/26 09:51:58;;;;;;;24.65;16.02;;;;;;;10.67;75.75;97994.95;1734359;82;21071;-58
2022/04/26 09:54:23;;;;;;;21.95;16.17;;;;;;;10.67;75.35;97997.66;1738655;82;21076;-58
2022/04/26 09:56:49;;;;;;;21.97;15.53;;;;;;;10.63;75.33;97997.42;1735345;82;20866;-57
2022/04/26 09:59:27;;;;;;;25.57;17.05;;;;;;;10.65;74.52;98001.20;1733281;80;21083;-57
2022/04/26 10:01:58;;;;;;;29.10;18.27;;;;;;;10.81;75.56;97998.67;1727780;82;21867;-58
2022/04/26 10:04:27;;;;;;;27.07;19.12;;;;;;;10.94;75.43;97996.69;1730114;81;21087;-57
2022/04/26 10:07:05;;;;;;;25.77;16.00;;;;;;;11.07;75.59;97998.48;1716892;81;21106;-58
2022/04/26 10:09:31;;;;;;;23.10;16.15;;;;;;;11.14;74.87;97998.42;1724644;82;20996;-57
2022/04/26 10:12:00;;;;;;;22.15;15.83;;;;;;;11.09;74.71;98000.36;1737228;81;20909;-58
2022/04/26 10:14:27;;;;;;;25.57;16.77;;;;;;;11.08;74.29;97997.39;1727120;81;21751;-58
2022/04/26 10:16:53;;;;;;;24.87;15.80;;;;;;;11.03;73.87;97999.61;1700140;83;21071;-57
2022/04/26 10:19:19;;;;;;;25.45;17.12;;;;;;;10.99;74.01;98001.25;1731757;82;21022;-58
2022/04/26 10:21:50;;;;;;;27.70;16.65;;;;;;;10.99;73.66;98002.06;1733133;82;21083;-58
2022/04/26 10:24:25;;;;;;;26.25;17.27;;;;;;;11.14;74.18;97997.07;1717105;82;21099;-57
2022/04/26 10:26:52;;;;;;;22.07;15.43;;;;;;;11.26;73.25;97993.98;1732321;81;21126;-58
2022/04/26 10:29:20;;;;;;;30.72;18.00;;;;;;;11.34;71.87;97996.08;1731421;81;22309;-57
2022/04/26 10:31:58;;;;;;;28.23;18.57;;;;;;;11.74;72.58;97998.15;1726502;82;21072;-58
2022/04/26 10:34:30;;;;;;;24.85;16.65;;;;;;;12.03;72.93;97993.50;1717146;82;21022;-58
2022/04/26 10:37:01;;;;;;;22.65;14.15;;;;;;;12.30;72.65;97999.69;1733301;81;21037;-58
2022/04/26 10:39:38;;;;;;;27.17;15.60;;;;;;;12.37;71.32;98001.50;1733587;81;22953;-57
2022/04/26 10:42:11;;;;;;;30.48;16.93;;;;;;;12.55;71.29;98008.61;1729771;82;21186;-58
2022/04/26 10:44:39;;;;;;;21.97;14.80;;;;;;;12.44;70.06;98003.86;1728176;82;21410;-58
2022/04/26 10:47:11;;;;;;;27.75;16.07;;;;;;;12.57;69.37;97998.28;1716957;82;21394;-58
2022/04/26 10:49:42;;;;;;;22.98;15.83;;;;;;;12.73;69.86;97997.48;1733737;81;21032;-58
2022/04/26 10:52:19;;;;;;;21.48;15.15;;;;;;;12.67;66.29;97998.94;1735364;81;21459;-58
2022/04/26 10:54:58;;;;;;;22.82;15.08;;;;;;;12.95;68.52;98001.23;1735742;81;21536;-57
2022/04/26 10:57:27;;;;;;;31.00;16.32;;;;;;;13.09;64.89;98000.50;1717077;81;21454;-57
2022/04/26 10:59:56;;;;;;;20.90;14.63;;;;;;;13.26;65.25;97996.16;1738976;82;22325;-58
2022/04/26 11:02:23;;;;;;;24.98;15.18;;;;;;;13.57;67.90;97994.81;1739205;81;21078;-58
2022/04/26 11:05:10;;;;;;;20.27;13.65;;;;;;;13.75;68.55;97996.66;1738399;80;21126;-58
2022/04/26 11:07:38;;;;;;;27.42;17.10;;;;;;;13.79;67.51;98000.41;1711608;81;21481;-58
2022/04/26 11:10:05;;;;;;;23.33;14.77;;;;;;;13.67;66.39;97999.55;1752918;80;21527;-57
2022/04/26 11:12:33;;;;;;;22.80;14.90;;;;;;;13.31;64.28;97999.33;1752391;80;21010;-57
2022/04/26 11:15:03;;;;;;;23.90;15.78;;;;;;;13.25;65.72;98000.55;1768821;79;21061;-57
2022/04/26 11:17:29;;;;;;;21.73;15.03;;;;;;;13.03;66.06;97998.41;1718143;83;21008;-58
2022/04/26 11:20:00;;;;;;;21.80;15.03;;;;;;;12.98;64.63;97997.91;1748561;81;21027;-58
2022/04/26 11:22:27;;;;;;;21.00;14.93;;;;;;;12.61;63.89;98002.02;1741473;81;21552;-57
2022/04/26 11:28:00;;;;;;;26.17;17.30;;;;;;;12.45;66.19;98003.31;1736199;81;21440;-58
2022/04/26 11:30:45;;;;;;;22.07;14.18;;;;;;;12.51;67.18;98008.95;1697107;81;21318;-57
2022/04/26 11:33:15;;;;;;;31.25;21.40;;;;;;;12.32;64.83;98007.02;1736423;79;20998;-57
2022/04/26 11:35:42;;;;;;;30.45;21.57;;;;;;;12.31;65.64;98008.12;1745121;81;21015;-58
2022/04/26 11:38:13;;;;;;;23.50;14.58;;;;;;;12.17;64.99;98013.98;1746469;80;21477;-58
2022/04/26 11:41:00;;;;;;;21.62;13.50;;;;;;;12.29;66.32;98012.20;1749601;81;21110;-58
2022/04/26 11:43:28;;;;;;;18.70;13.08;;;;;;;12.22;64.59;98014.46;1753724;81;21221;-57
2022/04/26 11:45:56;;;;;;;17.10;11.70;;;;;;;12.16;64.24;98015.64;1752800;81;21062;-58
2022/04/26 11:48:30;;;;;;;20.23;13.80;;;;;;;12.15;64.06;98017.55;1748385;81;21055;-58
2022/04/26 11:50:57;;;;;;;18.00;13.00;;;;;;;12.13;64.84;98011.58;1737001;81;20984;-58
2022/04/26 11:53:26;;;;;;;25.32;13.40;;;;;;;12.20;65.12;98015.30;1715556;80;21012;-58
2022/04/26 11:55:57;;;;;;;23.22;13.85;;;;;;;12.23;64.15;98016.11;1748879;81;21705;-58
2022/04/26 11:58:36;;;;;;;23.98;14.25;;;;;;;12.45;64.35;98015.55;1749143;79;21103;-57
2022/04/26 12:01:11;;;;;;;20.35;14.23;;;;;;;12.54;62.08;98015.95;1740586;81;22230;-57
2022/04/26 12:03:49;;;;;;;20.08;14.00;;;;;;;12.89;63.10;98009.76;1744267;81;21071;-57
2022/04/26 12:06:27;;;;;;;21.87;14.15;;;;;;;13.02;62.79;98002.78;1744080;81;21085;-57
2022/04/26 12:08:58;;;;;;;20.82;13.90;;;;;;;12.95;61.25;98005.87;1748626;79;21146;-58
2022/04/26 12:11:38;;;;;;;22.25;14.90;;;;;;;12.95;61.77;98003.15;1745423;81;21083;-58
2022/04/26 12:14:15;;;;;;;19.57;13.38;;;;;;;13.31;61.74;98002.61;1739557;81;21043;-58
2022/04/26 12:16:49;;;;;;;20.27;14.25;;;;;;;13.35;60.86;97995.48;1744961;81;21097;-58
2022/04/26 12:19:15;;;;;;;21.00;14.35;;;;;;;13.54;60.19;97998.95;1749157;80;21570;-58
2022/04/26 12:21:52;;;;;;;24.80;15.40;;;;;;;13.60;61.00;97998.31;1750427;81;21051;-58
2022/04/26 12:24:21;;;;;;;22.02;14.93;;;;;;;13.48;60.47;98000.14;1754881;79;21540;-57
2022/04/26 12:26:56;;;;;;;24.40;17.00;;;;;;;13.56;62.30;98004.90;1759916;81;20973;-57
2022/04/26 12:29:23;;;;;;;24.57;16.90;;;;;;;13.28;61.84;98003.22;1748396;80;21074;-57
2022/04/26 12:31:50;;;;;;;31.05;18.37;;;;;;;12.89;63.05;98007.04;1756447;80;20979;-57
2022/04/26 12:34:20;;;;;;;44.95;29.00;;;;;;;12.70;63.84;98005.69;1721461;81;21177;-57
2022/04/26 12:37:07;;;;;;;27.70;17.42;;;;;;;12.87;63.58;98010.06;1748284;80;20958;-57
2022/04/26 12:39:52;;;;;;;26.07;16.97;;;;;;;12.54;64.87;98010.52;1740818;80;21146;-58
2022/04/26 12:42:39;;;;;;;29.70;18.52;;;;;;;12.15;65.78;98006.69;1749010;81;21209;-58
2022/04/26 12:45:11;;;;;;;29.37;18.30;;;;;;;12.12;66.43;98007.25;1749415;81;21044;-57
2022/04/26 12:50:36;;;;;;;27.85;19.30;;;;;;;12.47;66.23;98001.91;1748759;80;21051;-58
2022/04/26 12:53:05;;;;;;;31.02;19.15;;;;;;;12.71;66.12;97990.98;1733732;81;21558;-57
2022/04/26 12:55:34;;;;;;;30.72;17.23;;;;;;;13.02;65.17;97987.83;1745817;81;21035;-58
2022/04/26 12:58:04;;;;;;;27.80;17.80;;;;;;;12.89;64.46;97992.89;1742068;81;21642;-58
2022/04/26 13:00:30;;;;;;;28.15;19.62;;;;;;;13.36;65.11;97987.57;1760377;79;21137;-57
2022/04/26 13:03:00;;;;;;;27.48;18.62;;;;;;;13.76;62.36;97994.22;1751871;80;21504;-58
2022/04/26 13:05:27;;;;;;;26.90;18.32;;;;;;;13.59;62.40;97989.34;1746297;80;21417;-57
2022/04/26 13:07:53;;;;;;;26.77;18.52;;;;;;;13.77;61.56;97989.83;1755889;80;21399;-57
2022/04/26 13:10:19;;;;;;;27.75;19.23;;;;;;;13.66;62.03;97991.66;1753740;79;21669;-57
2022/04/26 13:12:46;;;;;;;30.40;20.23;;;;;;;13.65;61.81;97986.77;1747905;80;21774;-58
2022/04/26 13:15:13;;;;;;;29.60;18.70;;;;;;;13.69;61.92;97990.52;1744466;81;21457;-58
2022/04/26 13:17:39;;;;;;;32.13;19.98;;;;;;;13.62;62.08;97988.73;1739754;80;21099;-58
2022/04/26 13:20:06;;;;;;;27.80;18.67;;;;;;;13.37;61.81;97987.82;1739629;81;21544;-58
2022/04/26 13:22:35;;;;;;;30.12;18.25;;;;;;;13.37;62.60;97989.98;1749205;80;22262;-58
2022/04/26 13:25:03;;;;;;;;;;;;;;;13.55;63.04;97995.12;1749482;79;21107;-58
2022/04/26 13:27:32;;;;;;;31.82;19.37;;;;;;;13.13;61.00;97998.23;1748728;80;21738;-57
2022/04/26 13:29:58;;;;;;;29.12;19.52;;;;;;;12.85;62.83;97997.87;1749184;80;21074;-58
2022/04/26 13:32:24;;;;;;;28.85;19.20;;;;;;;12.78;63.21;97991.43;1743352;80;20914;-57
2022/04/26 13:34:52;;;;;;;26.50;18.65;;;;;;;12.71;63.45;97991.80;1747250;81;21166;-58
2022/04/26 13:37:19;;;;;;;25.37;17.70;;;;;;;12.82;63.50;97994.36;1749885;80;21095;-58
2022/04/26 13:39:45;;;;;;;28.83;19.82;;;;;;;12.81;62.42;97994.91;1749424;80;21038;-58
2022/04/26 13:42:13;;;;;;;29.50;18.70;;;;;;;13.23;62.47;97991.30;1750443;80;21610;-57
2022/04/26 13:44:40;;;;;;;25.15;16.30;;;;;;;13.67;61.82;97996.82;1745996;79;21172;-58
2022/04/26 13:47:06;;;;;;;20.10;15.05;;;;;;;14.03;60.26;97992.86;1747021;80;20972;-58
2022/04/26 13:49:36;;;;;;;24.60;14.93;;;;;;;14.08;58.88;97995.47;1740737;81;21029;-58
2022/04/26 13:52:04;;;;;;;21.55;15.25;;;;;;;14.38;59.40;97990.52;1734675;80;20983;-58
2022/04/26 13:54:30;;;;;;;25.10;15.80;;;;;;;14.48;59.64;97997.15;1749038;80;21030;-57
2022/04/26 13:56:56;;;;;;;22.37;16.00;;;;;;;14.18;57.70;97995.02;1755882;80;20900;-58
2022/04/26 13:59:23;;;;;;;20.88;15.45;;;;;;;14.55;58.89;97995.38;1749363;80;21721;-58
2022/04/26 14:01:50;;;;;;;26.97;16.42;;;;;;;14.28;58.91;97987.46;1734337;81;21120;-58
2022/04/26 14:04:16;;;;;;;30.43;19.05;;;;;;;13.64;59.34;97989.79;1734055;81;20997;-58
2022/04/26 14:06:45;;;;;;;24.15;18.35;;;;;;;13.67;59.17;97994.63;1742098;81;21123;-58
2022/04/26 14:09:11;;;;;;;;;;;;;;;13.56;59.85;97991.28;1739707;80;21361;-58
2022/04/26 14:11:37;;;;;;;17.80;14.47;;;;;;;13.44;60.15;97989.05;1762076;80;20173;-58
2022/04/26 14:22:15;;;;;;;28.32;17.75;;;;;;;12.93;61.42;98002.64;1743336;81;20986;-57
2022/04/26 14:24:42;;;;;;;26.90;18.42;;;;;;;12.79;61.12;98000.40;1742972;80;20934;-58
2022/04/26 14:27:08;;;;;;;19.70;13.50;;;;;;;12.87;60.22;97996.46;1738825;81;21857;-56
2022/04/26 14:29:34;;;;;;;18.05;12.93;;;;;;;12.73;60.33;97994.77;1739609;81;21017;-57
2022/04/26 14:32:00;;;;;;;18.00;12.53;;;;;;;12.81;60.46;97998.99;1741362;81;21713;-56
2022/04/26 14:34:26;;;;;;;20.37;14.80;;;;;;;12.74;61.22;97997.22;1739895;80;20995;-58
2022/04/26 14:36:53;;;;;;;41.42;21.55;;;;;;;12.43;61.29;98000.34;1746778;81;20959;-57
2022/04/26 14:39:18;;;;;;;19.67;13.55;;;;;;;12.23;61.75;97997.90;1743189;80;21102;-58
2022/04/26 14:41:44;;;;;;;40.52;21.97;;;;;;;11.96;62.08;97991.67;1731293;81;20931;-58
2022/04/26 14:44:10;;;;;;;36.60;22.05;;;;;;;12.07;62.40;98000.53;1738845;80;20962;-57
2022/04/26 14:46:36;;;;;;;20.70;12.65;;;;;;;12.10;62.32;98003.47;1740983;81;20927;-57
2022/04/26 14:49:06;;;;;;;24.45;16.93;;;;;;;12.08;61.01;98011.10;1730584;82;20947;-57
2022/04/26 14:51:32;;;;;;;18.92;13.48;;;;;;;12.26;61.38;98003.29;1731472;80;21642;-57
2022/04/26 14:53:58;;;;;;;13.38;10.25;;;;;;;12.30;61.17;98002.95;1738768;81;21008;-57
2022/04/26 14:56:24;;;;;;;18.52;10.48;;;;;;;12.36;60.61;98004.52;1731031;82;20956;-58
2022/04/26 14:58:50;;;;;;;13.80;11.05;;;;;;;12.41;60.00;98001.74;1736485;82;20842;-57
2022/04/26 15:01:19;;;;;;;22.82;15.20;;;;;;;12.49;60.26;98003.01;1745246;82;20949;-58
2022/04/26 15:03:45;;;;;;;17.52;12.33;;;;;;;12.16;58.97;97994.72;1730335;82;26316;-56
2022/04/26 15:06:11;;;;;;;25.00;14.40;;;;;;;12.25;60.12;98004.39;1746622;82;20897;-57
2022/04/26 15:11:22;;;;;;;31.00;19.55;;;;;;;12.70;59.26;97997.53;1738306;82;21383;-57
2022/04/26 15:16:38;;;;;;;15.45;11.50;;;;;;;12.75;58.92;98000.73;1725597;82;21589;-58
2022/04/26 15:19:09;;;;;;;26.37;11.57;;;;;;;12.97;58.77;98001.73;1743794;82;21040;-57
2022/04/26 15:21:37;;;;;;;14.10;10.55;;;;;;;13.11;59.57;97996.37;1731590;82;21534;-57
2022/04/26 15:24:04;;;;;;;13.58;10.15;;;;;;;13.39;58.16;98000.02;1747175;82;21099;-57
2022/04/26 15:26:30;;;;;;;15.55;11.53;;;;;;;14.17;56.29;97996.93;1731995;82;21471;-57
2022/04/26 15:28:56;;;;;;;13.45;10.50;;;;;;;14.47;55.62;97991.45;1729195;82;21006;-57
2022/04/26 15:31:22;;;;;;;19.35;16.75;;;;;;;14.20;57.09;98000.98;1731483;82;21021;-57
2022/04/26 15:33:50;;;;;;;39.60;31.33;;;;;;;13.45;56.81;97998.83;1725705;81;21008;-57
2022/04/26 15:36:17;;;;;;;35.23;26.35;;;;;;;13.43;57.99;97999.69;1745084;82;20921;-57
2022/04/26 15:38:43;;;;;;;85.75;65.08;;;;;;;13.12;57.97;98007.50;1747666;82;20950;-58